KBCT

Boca Raton Airport

Boca Raton, Florida, USA
METAR KBCT 221452Z 09008G15KT 050V110 10SM SCT030 31/23 A3001
Observed Flight Rules
Sep-22 @ 14:52 UTC (53 minutes ago) Visual Flight Rules
Wind Visibility Clouds
90° at 8 knots
 Gusting to 15 knots
10 miles
Temperatures Readings
Current 31°C / 88°F
Dewpoint 23°C / 73°F
Humidity 62%
Altimeter 30.01" Hg
Pressure 1016 hPa
Elevation 4
METAR KBCT 221452Z 09008G15KT 050V110 10SM SCT030 31/23 A3001
Observed Flight Rules
Sep-22 @ 14:52 UTC
(53 minutes ago)
VFR
Wind Visibility
90° at 8 knots
 Gusting to 15 knots
10 miles
Clouds
Temperature Dewpoint
31°C / 88°F 23°C / 73°F
Humidity Altimeter Pressure
62% 30.01" Hg 1016 hPa